sensor_id;sensor_type;location;lat;lon;timestamp;pressure;altitude;pressure_sealevel;temperature;humidity
54146;BME280;40052;49.422;7.738;2022-08-21T00:01:25;74066.41;;;-145.25;53.04
54146;BME280;40052;49.422;7.738;2022-08-21T00:03:54;74076.41;;;-145.25;53.41
54146;BME280;40052;49.422;7.738;2022-08-21T00:06:21;74064.38;;;-145.25;53.75
54146;BME280;40052;49.422;7.738;2022-08-21T00:08:49;74032.34;;;-145.25;52.93
54146;BME280;40052;49.422;7.738;2022-08-21T00:11:15;74000.28;;;-145.25;52.41
54146;BME280;40052;49.422;7.738;2022-08-21T00:13:40;73996.25;;;-145.25;52.15
54146;BME280;40052;49.422;7.738;2022-08-21T00:16:06;73994.25;;;-145.25;51.90
54146;BME280;40052;49.422;7.738;2022-08-21T00:18:34;74026.31;;;-145.25;52.74
54146;BME280;40052;49.422;7.738;2022-08-21T00:21:02;74086.44;;;-145.25;54.12
54146;BME280;40052;49.422;7.738;2022-08-21T00:23:32;74064.38;;;-145.25;53.67
54146;BME280;40052;49.422;7.738;2022-08-21T00:25:58;74076.41;;;-145.25;53.94
54146;BME280;40052;49.422;7.738;2022-08-21T00:28:26;74094.44;;;-145.25;54.24
54146;BME280;40052;49.422;7.738;2022-08-21T00:30:51;74128.50;;;-145.25;54.88
54146;BME280;40052;49.422;7.738;2022-08-21T00:33:19;74122.50;;;-145.25;54.88
54146;BME280;40052;49.422;7.738;2022-08-21T00:35:45;74152.56;;;-145.25;55.42
54146;BME280;40052;49.422;7.738;2022-08-21T00:38:13;74126.50;;;-145.25;55.35
54146;BME280;40052;49.422;7.738;2022-08-21T00:40:45;74094.44;;;-145.25;54.55
54146;BME280;40052;49.422;7.738;2022-08-21T00:43:16;74080.41;;;-145.25;54.71
54146;BME280;40052;49.422;7.738;2022-08-21T00:45:42;74084.44;;;-145.25;54.67
54146;BME280;40052;49.422;7.738;2022-08-21T00:48:10;74086.44;;;-145.25;54.56
54146;BME280;40052;49.422;7.738;2022-08-21T00:50:40;74092.44;;;-145.25;54.64
54146;BME280;40052;49.422;7.738;2022-08-21T00:53:07;74110.47;;;-145.25;55.04
54146;BME280;40052;49.422;7.738;2022-08-21T00:55:36;74112.47;;;-145.25;55.20
54146;BME280;40052;49.422;7.738;2022-08-21T00:58:07;74090.44;;;-145.25;54.85
54146;BME280;40052;49.422;7.738;2022-08-21T01:00:37;74098.44;;;-145.25;54.50
54146;BME280;40052;49.422;7.738;2022-08-21T01:03:12;74136.53;;;-145.25;55.38
54146;BME280;40052;49.422;7.738;2022-08-21T01:05:41;74160.56;;;-145.25;56.06
54146;BME280;40052;49.422;7.738;2022-08-21T01:08:13;74208.66;;;-145.25;57.05
54146;BME280;40052;49.422;7.738;2022-08-21T01:10:40;74216.66;;;-145.25;57.38
54146;BME280;40052;49.422;7.738;2022-08-21T01:13:08;74204.66;;;-145.25;57.34
54146;BME280;40052;49.422;7.738;2022-08-21T01:15:37;74228.69;;;-145.25;58.08
54146;BME280;40052;49.422;7.738;2022-08-21T01:18:08;74226.69;;;-145.25;58.17
54146;BME280;40052;49.422;7.738;2022-08-21T01:20:36;74248.72;;;-145.25;58.43
54146;BME280;40052;49.422;7.738;2022-08-21T01:23:04;74262.75;;;-145.25;58.84
54146;BME280;40052;49.422;7.738;2022-08-21T01:25:31;74240.72;;;-145.25;58.55
54146;BME280;40052;49.422;7.738;2022-08-21T01:28:04;74238.72;;;-145.25;58.53
54146;BME280;40052;49.422;7.738;2022-08-21T01:30:34;74258.75;;;-145.25;58.92
54146;BME280;40052;49.422;7.738;2022-08-21T01:33:00;74264.75;;;-145.25;59.20
54146;BME280;40052;49.422;7.738;2022-08-21T01:35:26;74264.75;;;-145.25;59.32
54146;BME280;40052;49.422;7.738;2022-08-21T01:37:51;74268.78;;;-145.25;59.35
54146;BME280;40052;49.422;7.738;2022-08-21T01:40:20;74272.78;;;-145.25;59.63
54146;BME280;40052;49.422;7.738;2022-08-21T01:42:50;74234.69;;;-145.25;59.26
54146;BME280;40052;49.422;7.738;2022-08-21T01:45:18;74188.63;;;-145.25;57.77
54146;BME280;40052;49.422;7.738;2022-08-21T01:47:49;74174.59;;;-145.25;57.13
54146;BME280;40052;49.422;7.738;2022-08-21T01:50:18;74208.66;;;-145.25;57.62
54146;BME280;40052;49.422;7.738;2022-08-21T01:52:44;74232.69;;;-145.25;58.17
54146;BME280;40052;49.422;7.738;2022-08-21T01:55:11;74252.75;;;-145.25;58.68
54146;BME280;40052;49.422;7.738;2022-08-21T01:57:42;74270.78;;;-145.25;59.27
54146;BME280;40052;49.422;7.738;2022-08-21T02:00:11;74294.81;;;-145.25;59.78
54146;BME280;40052;49.422;7.738;2022-08-21T02:02:41;74280.78;;;-145.25;59.86
54146;BME280;40052;49.422;7.738;2022-08-21T02:05:08;74302.84;;;-145.25;60.23
54146;BME280;40052;49.422;7.738;2022-08-21T02:07:50;74250.72;;;-145.25;59.54
54146;BME280;40052;49.422;7.738;2022-08-21T02:10:21;74188.63;;;-145.25;58.15
54146;BME280;40052;49.422;7.738;2022-08-21T02:12:46;74166.56;;;-145.25;57.59
54146;BME280;40052;49.422;7.738;2022-08-21T02:15:19;74152.56;;;-145.25;57.03
54146;BME280;40052;49.422;7.738;2022-08-21T02:17:51;74138.53;;;-145.25;56.70
54146;BME280;40052;49.422;7.738;2022-08-21T02:20:30;74130.50;;;-145.25;56.44
54146;BME280;40052;49.422;7.738;2022-08-21T02:22:56;74192.63;;;-145.25;57.34
54146;BME280;40052;49.422;7.738;2022-08-21T02:25:23;74214.66;;;-145.25;58.00
54146;BME280;40052;49.422;7.738;2022-08-21T02:27:49;74240.72;;;-145.25;58.74
54146;BME280;40052;49.422;7.738;2022-08-21T02:30:19;74256.75;;;-145.25;59.37
54146;BME280;40052;49.422;7.738;2022-08-21T02:32:44;74292.81;;;-145.25;59.96
54146;BME280;40052;49.422;7.738;2022-08-21T02:35:12;74322.88;;;-145.25;61.03
54146;BME280;40052;49.422;7.738;2022-08-21T02:37:49;74340.91;;;-145.25;61.59
54146;BME280;40052;49.422;7.738;2022-08-21T02:40:24;74348.91;;;-145.25;62.02
54146;BME280;40052;49.422;7.738;2022-08-21T02:42:49;74356.94;;;-145.25;62.32
54146;BME280;40052;49.422;7.738;2022-08-21T02:45:19;74362.94;;;-145.25;62.54
54146;BME280;40052;49.422;7.738;2022-08-21T02:48:08;74344.91;;;-145.25;62.36
54146;BME280;40052;49.422;7.738;2022-08-21T02:50:47;74358.94;;;-145.25;62.53
54146;BME280;40052;49.422;7.738;2022-08-21T02:53:16;74356.94;;;-145.25;62.50
54146;BME280;40052;49.422;7.738;2022-08-21T02:55:44;74374.97;;;-145.25;62.76
54146;BME280;40052;49.422;7.738;2022-08-21T02:58:10;74393.00;;;-145.25;63.51
54146;BME280;40052;49.422;7.738;2022-08-21T03:00:36;74405.03;;;-145.25;63.64
54146;BME280;40052;49.422;7.738;2022-08-21T03:03:03;74407.03;;;-145.25;63.71
54146;BME280;40052;49.422;7.738;2022-08-21T03:05:32;74354.94;;;-145.25;62.71
54146;BME280;40052;49.422;7.738;2022-08-21T03:07:59;74290.81;;;-145.25;61.07
54146;BME280;40052;49.422;7.738;2022-08-21T03:10:25;74292.81;;;-145.25;60.30
54146;BME280;40052;49.422;7.738;2022-08-21T03:12:51;74332.88;;;-145.25;60.98
54146;BME280;40052;49.422;7.738;2022-08-21T03:15:20;74348.91;;;-145.25;61.81
54146;BME280;40052;49.422;7.738;2022-08-21T03:17:52;74387.00;;;-145.25;62.95
54146;BME280;40052;49.422;7.738;2022-08-21T03:20:22;74380.97;;;-145.25;62.70
54146;BME280;40052;49.422;7.738;2022-08-21T03:22:49;74374.97;;;-145.25;62.66
54146;BME280;40052;49.422;7.738;2022-08-21T03:25:19;74374.97;;;-145.25;62.96
54146;BME280;40052;49.422;7.738;2022-08-21T03:27:48;74372.97;;;-145.25;63.09
54146;BME280;40052;49.422;7.738;2022-08-21T03:30:22;74316.84;;;-145.25;62.16
54146;BME280;40052;49.422;7.738;2022-08-21T03:32:49;74290.81;;;-145.25;60.99
54146;BME280;40052;49.422;7.738;2022-08-21T03:35:17;74268.78;;;-145.25;60.37
54146;BME280;40052;49.422;7.738;2022-08-21T03:37:43;74234.69;;;-145.25;59.51
54146;BME280;40052;49.422;7.738;2022-08-21T03:40:13;74224.69;;;-145.25;58.79
54146;BME280;40052;49.422;7.738;2022-08-21T03:42:44;74290.81;;;-145.25;60.12
54146;BME280;40052;49.422;7.738;2022-08-21T03:45:13;74314.84;;;-145.25;60.70
54146;BME280;40052;49.422;7.738;2022-08-21T03:47:51;74370.97;;;-145.25;62.15
54146;BME280;40052;49.422;7.738;2022-08-21T03:50:18;74397.00;;;-145.25;63.25
54146;BME280;40052;49.422;7.738;2022-08-21T03:52:43;74393.00;;;-145.25;63.18
54146;BME280;40052;49.422;7.738;2022-08-21T03:55:09;74407.03;;;-145.25;63.60
54146;BME280;40052;49.422;7.738;2022-08-21T03:57:39;74421.06;;;-145.25;64.14
54146;BME280;40052;49.422;7.738;2022-08-21T04:00:09;74411.03;;;-145.25;64.07
54146;BME280;40052;49.422;7.738;2022-08-21T04:02:37;74389.00;;;-145.25;63.29
54146;BME280;40052;49.422;7.738;2022-08-21T04:05:06;74360.94;;;-145.25;61.43
54146;BME280;40052;49.422;7.738;2022-08-21T04:07:31;74389.00;;;-145.25;62.21
54146;BME280;40052;49.422;7.738;2022-08-21T04:10:00;74407.03;;;-145.25;62.73
54146;BME280;40052;49.422;7.738;2022-08-21T04:12:25;74389.00;;;-145.25;62.55
54146;BME280;40052;49.422;7.738;2022-08-21T04:14:53;74411.03;;;-145.25;63.11
54146;BME280;40052;49.422;7.738;2022-08-21T04:17:18;74415.03;;;-145.25;63.48
54146;BME280;40052;49.422;7.738;2022-08-21T04:19:46;74437.09;;;-145.25;64.25
54146;BME280;40052;49.422;7.738;2022-08-21T04:22:12;74441.09;;;-145.25;64.17
54146;BME280;40052;49.422;7.738;2022-08-21T04:24:37;74399.00;;;-145.25;62.62
54146;BME280;40052;49.422;7.738;2022-08-21T04:27:03;74397.00;;;-145.25;62.52
54146;BME280;40052;49.422;7.738;2022-08-21T04:29:31;74417.06;;;-145.25;63.11
54146;BME280;40052;49.422;7.738;2022-08-21T04:31:56;74419.06;;;-145.25;63.60
54146;BME280;40052;49.422;7.738;2022-08-21T04:34:24;74385.00;;;-145.25;62.28
54146;BME280;40052;49.422;7.738;2022-08-21T04:36:49;74360.94;;;-145.25;61.90
54146;BME280;40052;49.422;7.738;2022-08-21T04:39:18;74332.88;;;-145.25;60.80
54146;BME280;40052;49.422;7.738;2022-08-21T04:41:45;74356.94;;;-145.25;61.20
54146;BME280;40052;49.422;7.738;2022-08-21T04:44:11;74358.94;;;-145.25;61.42
54146;BME280;40052;49.422;7.738;2022-08-21T04:46:39;74348.91;;;-145.25;61.08
54146;BME280;40052;49.422;7.738;2022-08-21T04:49:06;74334.91;;;-145.25;60.31
54146;BME280;40052;49.422;7.738;2022-08-21T04:51:37;74362.94;;;-145.25;60.42
54146;BME280;40052;49.422;7.738;2022-08-21T04:54:06;74417.06;;;-145.25;61.93
54146;BME280;40052;49.422;7.738;2022-08-21T04:56:43;74441.09;;;-145.25;63.10
54146;BME280;40052;49.422;7.738;2022-08-21T04:59:17;74469.16;;;-145.25;63.49
54146;BME280;40052;49.422;7.738;2022-08-21T05:01:47;74501.22;;;-145.25;64.57
54146;BME280;40052;49.422;7.738;2022-08-21T05:04:18;74497.19;;;-145.25;65.16
54146;BME280;40052;49.422;7.738;2022-08-21T05:06:50;74495.19;;;-145.25;64.91
54146;BME280;40052;49.422;7.738;2022-08-21T05:09:18;74479.16;;;-145.25;65.01
54146;BME280;40052;49.422;7.738;2022-08-21T05:11:44;74439.09;;;-145.25;64.25
54146;BME280;40052;49.422;7.738;2022-08-21T05:14:11;74417.06;;;-145.25;63.05
54146;BME280;40052;49.422;7.738;2022-08-21T05:16:37;74443.09;;;-145.25;63.96
54146;BME280;40052;49.422;7.738;2022-08-21T05:19:04;74475.16;;;-145.25;64.80
54146;BME280;40052;49.422;7.738;2022-08-21T05:21:34;74487.19;;;-145.25;65.14
54146;BME280;40052;49.422;7.738;2022-08-21T05:23:59;74481.19;;;-145.25;64.58
54146;BME280;40052;49.422;7.738;2022-08-21T05:26:27;74467.16;;;-145.25;63.85
54146;BME280;40052;49.422;7.738;2022-08-21T05:28:55;74453.13;;;-145.25;64.05
54146;BME280;40052;49.422;7.738;2022-08-21T05:31:20;74449.13;;;-145.25;64.40
54146;BME280;40052;49.422;7.738;2022-08-21T05:33:50;74441.09;;;-145.25;64.25
54146;BME280;40052;49.422;7.738;2022-08-21T05:36:17;74433.09;;;-145.25;64.21
54146;BME280;40052;49.422;7.738;2022-08-21T05:38:42;74419.06;;;-145.25;63.71
54146;BME280;40052;49.422;7.738;2022-08-21T05:41:10;74417.06;;;-145.25;63.68
54146;BME280;40052;49.422;7.738;2022-08-21T05:43:40;74393.00;;;-145.25;63.03
54146;BME280;40052;49.422;7.738;2022-08-21T05:46:07;74360.94;;;-145.25;62.54
54146;BME280;40052;49.422;7.738;2022-08-21T05:48:36;74344.91;;;-145.25;61.75
54146;BME280;40052;49.422;7.738;2022-08-21T05:51:07;74318.88;;;-145.25;60.96
54146;BME280;40052;49.422;7.738;2022-08-21T05:53:36;74294.81;;;-145.25;60.36
54146;BME280;40052;49.422;7.738;2022-08-21T05:56:03;74314.84;;;-145.25;60.82
54146;BME280;40052;49.422;7.738;2022-08-21T05:58:29;74302.84;;;-145.25;60.63
54146;BME280;40052;49.422;7.738;2022-08-21T06:00:59;74274.78;;;-145.25;60.48
54146;BME280;40052;49.422;7.738;2022-08-21T06:03:28;74252.75;;;-145.25;59.56
54146;BME280;40052;49.422;7.738;2022-08-21T06:05:56;74254.75;;;-145.25;59.62
54146;BME280;40052;49.422;7.738;2022-08-21T06:08:22;74226.69;;;-145.25;59.26
54146;BME280;40052;49.422;7.738;2022-08-21T06:10:50;74216.66;;;-145.25;58.95
54146;BME280;40052;49.422;7.738;2022-08-21T06:13:20;74188.63;;;-145.25;58.65
54146;BME280;40052;49.422;7.738;2022-08-21T06:15:46;74194.63;;;-145.25;58.72
54146;BME280;40052;49.422;7.738;2022-08-21T06:18:14;74212.66;;;-145.25;59.09
54146;BME280;40052;49.422;7.738;2022-08-21T06:20:40;74236.72;;;-145.25;59.61
54146;BME280;40052;49.422;7.738;2022-08-21T06:23:05;74260.75;;;-145.25;60.76
54146;BME280;40052;49.422;7.738;2022-08-21T06:25:33;74308.84;;;-145.25;61.83
54146;BME280;40052;49.422;7.738;2022-08-21T06:28:07;74236.72;;;-145.25;60.04
54146;BME280;40052;49.422;7.738;2022-08-21T06:30:35;74190.63;;;-145.25;58.80
54146;BME280;40052;49.422;7.738;2022-08-21T06:33:03;74164.56;;;-145.25;58.15
54146;BME280;40052;49.422;7.738;2022-08-21T06:35:29;74134.53;;;-145.25;57.44
54146;BME280;40052;49.422;7.738;2022-08-21T06:37:56;74116.50;;;-145.25;56.73
54146;BME280;40052;49.422;7.738;2022-08-21T06:40:21;74112.47;;;-145.25;57.14
54146;BME280;40052;49.422;7.738;2022-08-21T06:42:47;74106.47;;;-145.25;57.78
54146;BME280;40052;49.422;7.738;2022-08-21T06:45:13;74100.47;;;-145.25;57.26
54146;BME280;40052;49.422;7.738;2022-08-21T06:47:38;74080.41;;;-145.25;56.36
54146;BME280;40052;49.422;7.738;2022-08-21T06:50:10;74080.41;;;-145.25;56.48
54146;BME280;40052;49.422;7.738;2022-08-21T06:52:36;74064.38;;;-145.25;56.05
54146;BME280;40052;49.422;7.738;2022-08-21T06:55:04;74064.38;;;-145.25;56.07
54146;BME280;40052;49.422;7.738;2022-08-21T06:57:35;74060.38;;;-145.25;55.74
54146;BME280;40052;49.422;7.738;2022-08-21T07:00:04;74044.34;;;-145.25;55.95
54146;BME280;40052;49.422;7.738;2022-08-21T07:02:32;74040.34;;;-145.25;55.92
54146;BME280;40052;49.422;7.738;2022-08-21T07:04:59;74016.31;;;-145.25;55.53
54146;BME280;40052;49.422;7.738;2022-08-21T07:07:24;74000.28;;;-145.25;54.94
54146;BME280;40052;49.422;7.738;2022-08-21T07:09:52;73978.22;;;-145.25;54.55
54146;BME280;40052;49.422;7.738;2022-08-21T07:12:17;73966.22;;;-145.25;53.58
54146;BME280;40052;49.422;7.738;2022-08-21T07:14:43;73946.19;;;-145.25;53.38
54146;BME280;40052;49.422;7.738;2022-08-21T07:17:14;73950.19;;;-145.25;53.90
54146;BME280;40052;49.422;7.738;2022-08-21T07:19:41;73944.16;;;-145.25;53.49
54146;BME280;40052;49.422;7.738;2022-08-21T07:22:07;73928.16;;;-145.25;53.05
54146;BME280;40052;49.422;7.738;2022-08-21T07:24:32;73922.13;;;-145.25;53.33
54146;BME280;40052;49.422;7.738;2022-08-21T07:26:57;73916.13;;;-145.25;52.88
54146;BME280;40052;49.422;7.738;2022-08-21T07:29:23;73918.13;;;-145.25;51.98
54146;BME280;40052;49.422;7.738;2022-08-21T07:31:48;73916.13;;;-145.25;52.29
54146;BME280;40052;49.422;7.738;2022-08-21T07:34:14;73886.06;;;-145.25;52.20
54146;BME280;40052;49.422;7.738;2022-08-21T07:36:39;73876.06;;;-145.25;51.79
54146;BME280;40052;49.422;7.738;2022-08-21T07:39:09;73862.03;;;-145.25;51.38
54146;BME280;40052;49.422;7.738;2022-08-21T07:41:37;73827.97;;;-145.25;50.52
54146;BME280;40052;49.422;7.738;2022-08-21T07:44:05;73811.94;;;-145.25;50.29
54146;BME280;40052;49.422;7.738;2022-08-21T07:46:30;73801.91;;;-145.25;49.91
54146;BME280;40052;49.422;7.738;2022-08-21T07:49:00;73781.88;;;-145.25;48.64
54146;BME280;40052;49.422;7.738;2022-08-21T07:51:27;73769.88;;;-145.25;48.13
54146;BME280;40052;49.422;7.738;2022-08-21T07:53:57;73747.81;;;-145.25;48.40
54146;BME280;40052;49.422;7.738;2022-08-21T07:56:23;73705.75;;;-145.25;47.97
54146;BME280;40052;49.422;7.738;2022-08-21T07:58:49;73699.75;;;-145.25;47.70
54146;BME280;40052;49.422;7.738;2022-08-21T08:01:17;73679.72;;;-145.25;47.74
54146;BME280;40052;49.422;7.738;2022-08-21T08:03:46;73669.69;;;-145.25;47.42
54146;BME280;40052;49.422;7.738;2022-08-21T08:06:12;73651.66;;;-145.25;47.14
54146;BME280;40052;49.422;7.738;2022-08-21T08:08:41;73629.63;;;-145.25;46.64
54146;BME280;40052;49.422;7.738;2022-08-21T08:11:07;73605.56;;;-145.25;45.34
54146;BME280;40052;49.422;7.738;2022-08-21T08:13:40;73579.53;;;-145.25;45.06
54146;BME280;40052;49.422;7.738;2022-08-21T08:16:06;73553.50;;;-145.25;44.83
54146;BME280;40052;49.422;7.738;2022-08-21T08:18:36;73535.47;;;-145.25;44.33
54146;BME280;40052;49.422;7.738;2022-08-21T08:21:05;73511.41;;;-145.25;43.32
54146;BME280;40052;49.422;7.738;2022-08-21T08:23:31;73483.38;;;-145.25;43.30
54146;BME280;40052;49.422;7.738;2022-08-21T08:25:58;73465.34;;;-145.25;42.76
54146;BME280;40052;49.422;7.738;2022-08-21T08:28:26;73455.31;;;-145.25;42.47
54146;BME280;40052;49.422;7.738;2022-08-21T08:30:52;73443.31;;;-145.25;41.84
54146;BME280;40052;49.422;7.738;2022-08-21T08:33:20;73425.28;;;-145.25;42.10
54146;BME280;40052;49.422;7.738;2022-08-21T08:35:48;73389.22;;;-145.25;42.05
54146;BME280;40052;49.422;7.738;2022-08-21T08:38:15;73373.19;;;-145.25;41.79
54146;BME280;40052;49.422;7.738;2022-08-21T08:43:33;73339.13;;;-145.25;41.70
54146;BME280;40052;49.422;7.738;2022-08-21T08:46:06;73329.13;;;-145.25;41.14
54146;BME280;40052;49.422;7.738;2022-08-21T08:48:53;73311.09;;;-145.25;41.36
54146;BME280;40052;49.422;7.738;2022-08-21T08:51:54;73279.03;;;-145.25;40.59
54146;BME280;40052;49.422;7.738;2022-08-21T08:54:38;73255.00;;;-145.25;39.96
54146;BME280;40052;49.422;7.738;2022-08-21T08:57:14;73244.97;;;-145.25;39.79
54146;BME280;40052;49.422;7.738;2022-08-21T08:59:46;73242.97;;;-145.25;39.00
54146;BME280;40052;49.422;7.738;2022-08-21T09:02:17;73228.94;;;-145.25;39.35
54146;BME280;40052;49.422;7.738;2022-08-21T09:04:44;73230.94;;;-145.25;38.89
54146;BME280;40052;49.422;7.738;2022-08-21T09:07:25;73202.91;;;-145.25;38.64
54146;BME280;40052;49.422;7.738;2022-08-21T09:10:13;73212.94;;;-145.25;38.32
54146;BME280;40052;49.422;7.738;2022-08-21T09:15:24;73196.91;;;-145.25;38.36
54146;BME280;40052;49.422;7.738;2022-08-21T09:21:03;73210.91;;;-145.25;38.62
54146;BME280;40052;49.422;7.738;2022-08-21T09:28:40;73162.84;;;-145.25;38.23
54146;BME280;40052;49.422;7.738;2022-08-21T09:31:32;73122.78;;;-145.25;38.00
54146;BME280;40052;49.422;7.738;2022-08-21T09:34:07;73124.78;;;-145.25;37.54
54146;BME280;40052;49.422;7.738;2022-08-21T09:39:07;73110.75;;;-145.25;37.28
54146;BME280;40052;49.422;7.738;2022-08-21T09:41:38;73138.81;;;-145.25;37.28
54146;BME280;40052;49.422;7.738;2022-08-21T09:44:07;73166.84;;;-145.25;37.28
54146;BME280;40052;49.422;7.738;2022-08-21T09:46:34;73130.78;;;-145.25;36.93
54146;BME280;40052;49.422;7.738;2022-08-21T09:49:03;73124.78;;;-145.25;36.53
54146;BME280;40052;49.422;7.738;2022-08-21T09:51:30;73130.78;;;-145.25;36.18
54146;BME280;40052;49.422;7.738;2022-08-21T09:56:53;73080.72;;;-145.25;35.27
54146;BME280;40052;49.422;7.738;2022-08-21T09:59:42;73034.63;;;-145.25;35.46
54146;BME280;40052;49.422;7.738;2022-08-21T10:02:36;73040.66;;;-145.25;34.82
54146;BME280;40052;49.422;7.738;2022-08-21T10:05:28;73004.59;;;-145.25;34.51
54146;BME280;40052;49.422;7.738;2022-08-21T10:07:53;72968.53;;;-145.25;34.00
54146;BME280;40052;49.422;7.738;2022-08-21T10:10:26;72952.50;;;-145.25;33.51
54146;BME280;40052;49.422;7.738;2022-08-21T10:21:23;72928.47;;;-145.25;33.51
54146;BME280;40052;49.422;7.738;2022-08-21T10:24:32;72884.41;;;-145.25;33.75
54146;BME280;40052;49.422;7.738;2022-08-21T10:30:21;72878.41;;;-145.25;33.25
54146;BME280;40052;49.422;7.738;2022-08-21T10:33:01;72882.41;;;-145.25;32.99
54146;BME280;40052;49.422;7.738;2022-08-21T10:43:50;72870.38;;;-145.25;32.73
54146;BME280;40052;49.422;7.738;2022-08-21T10:49:22;72822.31;;;-145.25;32.89
54146;BME280;40052;49.422;7.738;2022-08-21T10:52:32;72858.38;;;-145.25;32.81
54146;BME280;40052;49.422;7.738;2022-08-21T10:55:12;72840.34;;;-145.25;33.26
54146;BME280;40052;49.422;7.738;2022-08-21T10:57:57;72854.38;;;-145.25;33.08
54146;BME280;40052;49.422;7.738;2022-08-21T11:00:30;72862.38;;;-145.25;32.88
54146;BME280;40052;49.422;7.738;2022-08-21T11:03:07;72816.31;;;-145.25;32.81
54146;BME280;40052;49.422;7.738;2022-08-21T11:05:42;72766.22;;;-145.25;32.29
54146;BME280;40052;49.422;7.738;2022-08-21T11:08:12;72720.16;;;-145.25;32.93
54146;BME280;40052;49.422;7.738;2022-08-21T11:10:47;72684.09;;;-145.25;32.12
54146;BME280;40052;49.422;7.738;2022-08-21T11:13:26;72720.16;;;-145.25;32.25
54146;BME280;40052;49.422;7.738;2022-08-21T11:18:41;72694.13;;;-145.25;32.00
54146;BME280;40052;49.422;7.738;2022-08-21T11:24:17;72796.28;;;-145.25;32.72
54146;BME280;40052;49.422;7.738;2022-08-21T11:29:37;72742.19;;;-145.25;32.07
54146;BME280;40052;49.422;7.738;2022-08-21T11:51:14;72616.00;;;-145.25;31.15
54146;BME280;40052;49.422;7.738;2022-08-21T11:54:48;72656.06;;;-145.25;31.39
54146;BME280;40052;49.422;7.738;2022-08-21T11:56:49;72581.97;;;-145.25;31.44
54146;BME280;40052;49.422;7.738;2022-08-21T11:59:45;72577.94;;;-145.25;30.78
54146;BME280;40052;49.422;7.738;2022-08-21T12:02:18;72662.06;;;-145.25;31.12
54146;BME280;40052;49.422;7.738;2022-08-21T12:05:22;72638.03;;;-145.25;31.20
54146;BME280;40052;49.422;7.738;2022-08-21T12:07:48;72650.06;;;-145.25;31.53
54146;BME280;40052;49.422;7.738;2022-08-21T12:10:32;72604.00;;;-145.25;31.07
54146;BME280;40052;49.422;7.738;2022-08-21T12:13:09;72620.00;;;-145.25;31.03
54146;BME280;40052;49.422;7.738;2022-08-21T12:15:36;72610.00;;;-145.25;30.82
54146;BME280;40052;49.422;7.738;2022-08-21T12:18:29;72634.03;;;-145.25;30.98
54146;BME280;40052;49.422;7.738;2022-08-21T12:26:46;72481.81;;;-145.25;29.63
54146;BME280;40052;49.422;7.738;2022-08-21T12:32:02;72463.78;;;-145.25;29.62
54146;BME280;40052;49.422;7.738;2022-08-21T12:34:41;72541.91;;;-145.25;29.93
54146;BME280;40052;49.422;7.738;2022-08-21T12:40:42;72547.91;;;-145.25;29.67
54146;BME280;40052;49.422;7.738;2022-08-21T12:43:15;72606.00;;;-145.25;30.37
54146;BME280;40052;49.422;7.738;2022-08-21T12:45:47;72567.94;;;-145.25;30.04
54146;BME280;40052;49.422;7.738;2022-08-21T12:53:48;72543.91;;;-145.25;30.51
54146;BME280;40052;49.422;7.738;2022-08-21T12:56:20;72467.78;;;-145.25;29.74
54146;BME280;40052;49.422;7.738;2022-08-21T12:58:48;72445.75;;;-145.25;29.31
54146;BME280;40052;49.422;7.738;2022-08-21T13:01:27;72415.72;;;-145.25;29.00
54146;BME280;40052;49.422;7.738;2022-08-21T13:03:58;72407.72;;;-145.25;29.27
54146;BME280;40052;49.422;7.738;2022-08-21T13:06:29;72403.69;;;-145.25;29.13
54146;BME280;40052;49.422;7.738;2022-08-21T13:09:03;72419.72;;;-145.25;29.05
54146;BME280;40052;49.422;7.738;2022-08-21T13:11:32;72409.72;;;-145.25;29.36
54146;BME280;40052;49.422;7.738;2022-08-21T13:14:00;72477.81;;;-145.25;29.51
54146;BME280;40052;49.422;7.738;2022-08-21T13:16:28;72443.75;;;-145.25;29.73
54146;BME280;40052;49.422;7.738;2022-08-21T13:19:01;72379.66;;;-145.25;28.87
54146;BME280;40052;49.422;7.738;2022-08-21T13:21:39;72413.72;;;-145.25;28.71
54146;BME280;40052;49.422;7.738;2022-08-21T13:26:35;72447.75;;;-145.25;28.90
54146;BME280;40052;49.422;7.738;2022-08-21T13:29:07;72429.75;;;-145.25;28.77
54146;BME280;40052;49.422;7.738;2022-08-21T13:31:37;72389.69;;;-145.25;28.58
54146;BME280;40052;49.422;7.738;2022-08-21T13:34:06;72327.59;;;-145.25;28.19
54146;BME280;40052;49.422;7.738;2022-08-21T13:36:35;72295.56;;;-145.25;28.19
54146;BME280;40052;49.422;7.738;2022-08-21T13:39:04;72289.53;;;-145.25;27.59
54146;BME280;40052;49.422;7.738;2022-08-21T13:41:34;72291.53;;;-145.25;27.79
54146;BME280;40052;49.422;7.738;2022-08-21T13:46:31;72287.53;;;-145.25;28.06
54146;BME280;40052;49.422;7.738;2022-08-21T13:48:59;72251.50;;;-145.25;27.72
54146;BME280;40052;49.422;7.738;2022-08-21T13:51:27;72253.50;;;-145.25;27.48
54146;BME280;40052;49.422;7.738;2022-08-21T13:53:53;72187.41;;;-145.25;27.11
54146;BME280;40052;49.422;7.738;2022-08-21T13:56:26;72201.41;;;-145.25;27.58
54146;BME280;40052;49.422;7.738;2022-08-21T13:58:52;72281.53;;;-145.25;27.81
54146;BME280;40052;49.422;7.738;2022-08-21T14:04:02;72321.59;;;-145.25;27.97
54146;BME280;40052;49.422;7.738;2022-08-21T14:06:34;72285.53;;;-145.25;28.05
54146;BME280;40052;49.422;7.738;2022-08-21T14:09:13;72311.56;;;-145.25;28.13
54146;BME280;40052;49.422;7.738;2022-08-21T14:11:48;72293.53;;;-145.25;27.93
54146;BME280;40052;49.422;7.738;2022-08-21T14:14:22;72329.59;;;-145.25;28.45
54146;BME280;40052;49.422;7.738;2022-08-21T14:19:37;72309.56;;;-145.25;27.86
54146;BME280;40052;49.422;7.738;2022-08-21T14:22:43;72297.56;;;-145.25;28.13
54146;BME280;40052;49.422;7.738;2022-08-21T14:25:15;72199.41;;;-145.25;27.23
54146;BME280;40052;49.422;7.738;2022-08-21T14:28:27;72135.34;;;-145.25;26.85
54146;BME280;40052;49.422;7.738;2022-08-21T14:30:53;72101.28;;;-145.25;26.47
54146;BME280;40052;49.422;7.738;2022-08-21T14:33:27;72097.28;;;-145.25;26.42
54146;BME280;40052;49.422;7.738;2022-08-21T14:35:53;72073.25;;;-145.25;26.23